createdAt,value
2022-10-09T00:01:10.406Z,7.65
2022-10-09T00:03:38.783Z,7.58
2022-10-09T00:06:06.832Z,7.52
2022-10-09T00:08:39.265Z,7.52
2022-10-09T00:11:08.198Z,7.45
2022-10-09T00:13:37.879Z,7.40
2022-10-09T00:16:07.240Z,7.37
2022-10-09T00:18:36.745Z,7.35
2022-10-09T00:21:04.722Z,7.31
2022-10-09T00:23:31.532Z,7.25
2022-10-09T00:26:01.725Z,7.28
2022-10-09T00:28:30.014Z,7.25
2022-10-09T00:30:56.792Z,7.26
2022-10-09T00:33:23.292Z,7.21
2022-10-09T00:35:49.923Z,7.15
2022-10-09T00:38:18.810Z,7.16
2022-10-09T00:40:47.726Z,7.15
2022-10-09T00:43:20.098Z,7.12
2022-10-09T00:45:55.259Z,7.10
2022-10-09T00:48:22.809Z,7.12
2022-10-09T00:50:56.375Z,7.13
2022-10-09T00:53:28.947Z,7.06
2022-10-09T00:55:56.096Z,7.06
2022-10-09T00:58:24.901Z,7.03
2022-10-09T01:00:52.510Z,7.01
2022-10-09T01:03:19.052Z,6.99
2022-10-09T01:06:16.481Z,6.95
2022-10-09T01:09:20.999Z,6.93
2022-10-09T01:11:59.064Z,6.88
2022-10-09T01:14:29.572Z,6.82
2022-10-09T01:17:35.808Z,6.79
2022-10-09T01:20:10.361Z,6.78
2022-10-09T01:23:06.828Z,6.72
2022-10-09T01:26:16.919Z,6.70
2022-10-09T01:28:47.699Z,6.67
2022-10-09T01:31:16.759Z,6.67
2022-10-09T01:33:47.312Z,6.61
2022-10-09T01:36:16.017Z,6.61
2022-10-09T01:38:43.754Z,6.63
2022-10-09T01:41:15.400Z,6.57
2022-10-09T01:43:41.811Z,6.56
2022-10-09T01:46:29.202Z,6.55
2022-10-09T01:49:01.590Z,6.55
2022-10-09T01:51:33.317Z,6.50
2022-10-09T01:54:02.694Z,6.48
2022-10-09T01:56:33.119Z,6.53
2022-10-09T01:59:04.081Z,6.52
2022-10-09T02:01:36.513Z,6.48
2022-10-09T02:04:08.477Z,6.45
2022-10-09T02:06:40.862Z,6.47
2022-10-09T02:09:11.888Z,6.45
2022-10-09T02:11:40.861Z,6.42
2022-10-09T02:14:11.817Z,6.42
2022-10-09T02:16:39.873Z,6.39
2022-10-09T02:19:30.422Z,6.32
2022-10-09T02:22:13.006Z,6.30
2022-10-09T02:24:40.008Z,6.29
2022-10-09T02:27:07.783Z,6.26
2022-10-09T02:29:35.233Z,6.23
2022-10-09T02:32:01.602Z,6.19
2022-10-09T02:34:30.320Z,6.16
2022-10-09T02:36:56.789Z,6.12
2022-10-09T02:39:23.242Z,6.09
2022-10-09T02:41:49.663Z,6.07
2022-10-09T02:44:16.112Z,6.06
2022-10-09T02:46:45.090Z,6.02
2022-10-09T02:49:11.532Z,5.96
2022-10-09T02:51:38.173Z,5.99
2022-10-09T02:54:05.016Z,5.95
2022-10-09T02:56:34.507Z,5.93
2022-10-09T02:59:03.282Z,5.90
2022-10-09T03:01:29.690Z,5.87
2022-10-09T03:03:56.148Z,5.86
2022-10-09T03:06:27.535Z,5.83
2022-10-09T03:08:54.244Z,5.81
2022-10-09T03:11:23.007Z,5.80
2022-10-09T03:13:50.112Z,5.79
2022-10-09T03:16:19.321Z,5.76
2022-10-09T03:18:47.053Z,5.73
2022-10-09T03:21:18.883Z,5.71
2022-10-09T03:23:48.182Z,5.69
2022-10-09T03:26:17.544Z,5.70
2022-10-09T03:28:50.953Z,5.68
2022-10-09T03:31:39.754Z,5.67
2022-10-09T03:34:06.747Z,5.66
2022-10-09T03:36:33.158Z,5.64
2022-10-09T03:39:08.030Z,5.64
2022-10-09T03:41:34.958Z,5.63
2022-10-09T03:44:03.661Z,5.64
2022-10-09T03:46:30.237Z,5.63
2022-10-09T03:48:56.723Z,5.60
2022-10-09T03:51:23.079Z,5.59
2022-10-09T03:53:49.482Z,5.60
2022-10-09T03:56:15.894Z,5.65
2022-10-09T03:58:47.211Z,5.61
2022-10-09T04:01:13.689Z,5.60
2022-10-09T04:03:40.058Z,5.59
2022-10-09T04:06:06.589Z,5.56
2022-10-09T04:08:33.120Z,5.52
2022-10-09T04:11:04.377Z,5.51
2022-10-09T04:13:30.823Z,5.49
2022-10-09T04:15:57.375Z,5.46
2022-10-09T04:18:24.819Z,5.49
2022-10-09T04:20:55.955Z,5.45
2022-10-09T04:23:25.414Z,5.44
2022-10-09T04:25:59.504Z,5.44
2022-10-09T04:28:27.495Z,5.41
2022-10-09T04:30:54.556Z,5.39
2022-10-09T04:33:24.091Z,5.39
2022-10-09T04:35:52.580Z,5.34
2022-10-09T04:38:20.433Z,5.39
2022-10-09T04:41:01.157Z,5.34
2022-10-09T04:43:28.418Z,5.33
2022-10-09T04:45:55.424Z,5.34
2022-10-09T04:48:22.453Z,5.35
2022-10-09T04:50:49.036Z,5.32
2022-10-09T04:53:15.687Z,5.27
2022-10-09T04:55:43.374Z,5.26
2022-10-09T04:58:11.642Z,5.26
2022-10-09T05:00:43.013Z,5.25
2022-10-09T05:03:10.543Z,5.21
2022-10-09T05:05:37.392Z,5.20
2022-10-09T05:08:08.732Z,5.14
2022-10-09T05:10:35.291Z,5.15
2022-10-09T05:13:01.707Z,5.11
2022-10-09T05:15:30.413Z,5.08
2022-10-09T05:17:56.886Z,5.07
2022-10-09T05:20:23.364Z,5.04
2022-10-09T05:22:50.057Z,5.03
2022-10-09T05:25:16.921Z,4.99
2022-10-09T05:27:43.401Z,4.98
2022-10-09T05:30:12.677Z,4.96
2022-10-09T05:32:41.389Z,4.94
2022-10-09T05:35:08.269Z,4.92
2022-10-09T05:37:34.719Z,4.93
2022-10-09T05:40:03.922Z,4.91
2022-10-09T05:42:30.293Z,4.92
2022-10-09T05:44:56.757Z,4.91
2022-10-09T05:47:23.185Z,4.88
2022-10-09T05:49:49.549Z,4.88
2022-10-09T05:52:18.438Z,4.86
2022-10-09T05:54:44.962Z,4.85
2022-10-09T05:57:11.322Z,4.90
2022-10-09T05:59:37.771Z,4.91
2022-10-09T06:02:06.587Z,4.88
2022-10-09T06:04:33.124Z,4.92
2022-10-09T06:06:59.488Z,4.92
2022-10-09T06:09:26.535Z,4.95
2022-10-09T06:11:55.525Z,4.94
2022-10-09T06:14:22.581Z,4.97
2022-10-09T06:16:51.908Z,5.01
2022-10-09T06:19:19.921Z,5.13
2022-10-09T06:21:47.140Z,5.09
2022-10-09T06:24:27.256Z,5.14
2022-10-09T06:26:55.106Z,5.16
2022-10-09T06:29:21.631Z,5.27
2022-10-09T06:31:51.101Z,5.30
2022-10-09T06:34:22.298Z,5.33
2022-10-09T06:36:49.000Z,5.40
2022-10-09T06:39:18.057Z,5.48
2022-10-09T06:41:47.043Z,5.59
2022-10-09T06:44:16.678Z,5.83
2022-10-09T06:46:48.794Z,5.92
2022-10-09T06:49:15.356Z,6.00
2022-10-09T06:51:41.872Z,6.16
2022-10-09T06:54:13.605Z,6.19
2022-10-09T06:56:40.416Z,6.39
2022-10-09T06:59:07.593Z,6.40
2022-10-09T07:01:36.461Z,6.44
2022-10-09T07:04:07.523Z,6.49
2022-10-09T07:06:37.908Z,6.89
2022-10-09T07:09:07.242Z,6.94
2022-10-09T07:11:35.956Z,6.84
2022-10-09T07:14:05.717Z,7.15
2022-10-09T07:16:37.673Z,7.11
2022-10-09T07:19:07.560Z,7.12
2022-10-09T07:21:35.756Z,7.24
2022-10-09T07:24:03.532Z,7.52
2022-10-09T07:26:34.746Z,7.48
2022-10-09T07:29:05.179Z,7.71
2022-10-09T07:31:31.586Z,7.76
2022-10-09T07:33:58.046Z,7.89
2022-10-09T07:36:25.521Z,8.13
2022-10-09T07:38:54.297Z,8.18
2022-10-09T07:41:22.261Z,8.28
2022-10-09T07:43:48.867Z,8.59
2022-10-09T07:46:18.869Z,9.00
2022-10-09T07:48:46.541Z,8.93
2022-10-09T07:51:17.629Z,8.92
2022-10-09T07:53:44.908Z,9.06
2022-10-09T07:56:19.190Z,9.16
2022-10-09T07:58:58.840Z,9.27
2022-10-09T08:01:27.992Z,9.57
2022-10-09T08:03:59.886Z,9.65
2022-10-09T08:06:27.100Z,9.71
2022-10-09T08:08:56.727Z,9.98
2022-10-09T08:11:27.677Z,10.19
2022-10-09T08:13:54.118Z,10.63
2022-10-09T08:16:22.226Z,10.61
2022-10-09T08:18:48.697Z,10.80
2022-10-09T08:21:18.053Z,10.83
2022-10-09T08:23:45.581Z,10.90
2022-10-09T08:26:19.661Z,10.92
2022-10-09T08:28:56.106Z,11.11
2022-10-09T08:31:24.108Z,11.16
2022-10-09T08:33:58.167Z,11.30
2022-10-09T08:36:24.980Z,11.42
2022-10-09T08:38:52.149Z,11.59
2022-10-09T08:41:42.089Z,11.75
2022-10-09T08:44:25.422Z,12.19
2022-10-09T08:47:10.729Z,12.48
2022-10-09T08:49:57.798Z,12.61
2022-10-09T08:52:49.817Z,12.74
2022-10-09T08:55:35.577Z,12.85
2022-10-09T08:58:14.093Z,12.87
2022-10-09T09:00:45.998Z,12.98
2022-10-09T09:03:33.870Z,13.20
2022-10-09T09:06:14.777Z,13.21
2022-10-09T09:09:19.565Z,13.22
2022-10-09T09:11:54.947Z,13.24
2022-10-09T09:14:30.447Z,13.33
2022-10-09T09:17:37.784Z,13.38
2022-10-09T09:20:13.113Z,13.39
2022-10-09T09:22:47.381Z,13.60
2022-10-09T09:25:25.932Z,13.57
2022-10-09T09:28:07.684Z,13.52
2022-10-09T09:30:46.752Z,13.59
2022-10-09T09:33:25.373Z,13.63
2022-10-09T09:35:51.758Z,13.73
2022-10-09T09:38:18.185Z,13.79
2022-10-09T09:40:47.250Z,14.00
2022-10-09T09:43:23.133Z,14.02
2022-10-09T09:45:54.497Z,14.14
2022-10-09T09:48:35.465Z,14.13
2022-10-09T09:51:26.945Z,14.17
2022-10-09T09:53:57.873Z,14.10
2022-10-09T09:57:06.909Z,14.13
2022-10-09T09:59:40.504Z,14.24
2022-10-09T10:02:14.416Z,14.28
2022-10-09T10:05:14.634Z,14.41
2022-10-09T10:07:41.095Z,14.48
2022-10-09T10:10:23.971Z,14.49
2022-10-09T10:12:52.106Z,14.54
2022-10-09T10:15:26.620Z,14.59
2022-10-09T10:17:59.384Z,14.76
2022-10-09T10:20:27.183Z,14.96
2022-10-09T10:22:56.907Z,14.83
2022-10-09T10:25:33.552Z,14.86
2022-10-09T10:28:19.961Z,14.73
2022-10-09T10:30:50.111Z,14.87
2022-10-09T10:33:26.062Z,14.95
2022-10-09T10:35:55.939Z,14.93
2022-10-09T10:38:44.513Z,15.15
2022-10-09T10:41:33.986Z,15.30
2022-10-09T10:44:24.888Z,15.29
2022-10-09T10:46:58.741Z,15.51
2022-10-09T10:49:30.562Z,15.31
2022-10-09T10:52:15.393Z,15.30
2022-10-09T10:54:53.733Z,15.53
2022-10-09T10:57:20.605Z,15.55
2022-10-09T11:00:06.359Z,15.58
2022-10-09T11:02:58.470Z,15.63
2022-10-09T11:05:33.263Z,15.71
2022-10-09T11:08:02.449Z,15.58
2022-10-09T11:10:56.688Z,15.66
2022-10-09T11:13:29.712Z,15.86
2022-10-09T11:16:29.497Z,16.00
2022-10-09T11:19:05.227Z,15.94
2022-10-09T11:21:37.553Z,15.92
2022-10-09T11:24:29.169Z,15.87
2022-10-09T11:27:07.218Z,16.00
2022-10-09T11:29:40.491Z,16.21
2022-10-09T11:32:29.956Z,16.29
2022-10-09T11:35:12.575Z,16.26
2022-10-09T11:37:43.888Z,16.34
2022-10-09T11:40:34.036Z,16.39
2022-10-09T11:43:21.394Z,16.25
2022-10-09T11:45:58.458Z,16.20
2022-10-09T11:48:45.101Z,16.31
2022-10-09T11:51:32.908Z,16.42
2022-10-09T11:54:00.238Z,16.28
2022-10-09T11:56:29.771Z,16.31
2022-10-09T11:58:58.544Z,16.45
2022-10-09T12:01:31.632Z,16.46
2022-10-09T12:04:06.471Z,16.66
2022-10-09T12:06:45.748Z,16.69
2022-10-09T12:09:26.768Z,16.51
2022-10-09T12:12:07.331Z,16.49
2022-10-09T12:14:36.485Z,16.49
2022-10-09T12:17:35.296Z,16.51
2022-10-09T12:20:15.491Z,16.67
2022-10-09T12:23:01.519Z,16.54
2022-10-09T12:25:40.960Z,16.57
2022-10-09T12:28:29.934Z,16.58
2022-10-09T12:30:59.494Z,16.61
2022-10-09T12:33:40.277Z,16.50
2022-10-09T12:36:22.183Z,16.50
2022-10-09T12:38:48.900Z,16.53
2022-10-09T12:41:26.211Z,16.60
2022-10-09T12:43:55.371Z,16.64
2022-10-09T12:46:38.145Z,16.75
2022-10-09T12:49:14.883Z,16.76
2022-10-09T12:51:43.823Z,16.88
2022-10-09T12:54:10.554Z,16.81
2022-10-09T12:56:38.783Z,16.74
2022-10-09T12:59:07.108Z,16.74
2022-10-09T13:01:35.158Z,16.73
2022-10-09T13:04:08.379Z,16.71
2022-10-09T13:06:56.871Z,16.76
2022-10-09T13:09:37.016Z,16.63
2022-10-09T13:12:20.770Z,16.65
2022-10-09T13:15:07.149Z,16.80
2022-10-09T13:17:35.323Z,16.68
2022-10-09T13:20:27.131Z,16.86
2022-10-09T13:23:01.454Z,16.74
2022-10-09T13:25:33.080Z,16.80
2022-10-09T13:27:59.819Z,16.79
2022-10-09T13:30:28.199Z,16.80
2022-10-09T13:32:55.149Z,16.83
2022-10-09T13:35:24.294Z,16.90
2022-10-09T13:37:51.093Z,16.89
2022-10-09T13:40:20.713Z,16.95
2022-10-09T13:42:56.121Z,16.89
2022-10-09T13:45:22.873Z,16.91
2022-10-09T13:47:49.451Z,16.94
2022-10-09T13:50:17.693Z,16.81
2022-10-09T13:52:44.281Z,16.93
2022-10-09T13:55:11.068Z,16.96
2022-10-09T13:57:37.733Z,16.86
2022-10-09T14:00:06.014Z,16.76
2022-10-09T14:02:32.606Z,16.89
2022-10-09T14:04:59.019Z,16.80
2022-10-09T14:07:25.683Z,16.86
2022-10-09T14:09:54.713Z,16.90
2022-10-09T14:12:23.390Z,16.83
2022-10-09T14:14:56.434Z,16.88
2022-10-09T14:17:23.074Z,16.94
2022-10-09T14:19:49.481Z,16.91
2022-10-09T14:22:16.106Z,16.88
2022-10-09T14:24:47.409Z,16.92
2022-10-09T14:27:13.839Z,17.00
2022-10-09T14:29:40.266Z,16.91
2022-10-09T14:32:06.853Z,16.86
2022-10-09T14:34:33.291Z,16.88
2022-10-09T14:36:59.768Z,17.03
2022-10-09T14:39:28.768Z,16.96
2022-10-09T14:41:55.146Z,16.95
2022-10-09T14:44:21.601Z,16.98
2022-10-09T14:46:48.027Z,16.99
2022-10-09T14:49:14.644Z,16.98
2022-10-09T14:51:41.725Z,16.94
2022-10-09T14:54:11.839Z,17.01
2022-10-09T14:56:40.461Z,16.83
2022-10-09T14:59:06.956Z,16.85
2022-10-09T15:01:34.633Z,16.85
2022-10-09T15:04:01.789Z,16.89
2022-10-09T15:06:28.539Z,17.01
2022-10-09T15:09:00.409Z,16.87
2022-10-09T15:11:30.403Z,16.88
2022-10-09T15:13:57.314Z,16.77
2022-10-09T15:16:23.667Z,16.79
2022-10-09T15:18:52.122Z,16.86
2022-10-09T15:21:27.055Z,16.77
2022-10-09T15:23:55.253Z,16.78
2022-10-09T15:26:22.375Z,16.85
2022-10-09T15:28:51.105Z,16.77
2022-10-09T15:31:28.737Z,16.81
2022-10-09T15:33:57.351Z,16.94
2022-10-09T15:36:24.822Z,16.89
2022-10-09T15:38:51.418Z,16.81
2022-10-09T15:41:26.033Z,16.87
2022-10-09T15:43:55.705Z,16.78
2022-10-09T15:46:22.852Z,16.72
2022-10-09T15:48:49.454Z,16.68
2022-10-09T15:51:18.052Z,16.72
2022-10-09T15:53:46.311Z,16.70
2022-10-09T15:56:15.398Z,16.70
2022-10-09T15:58:42.076Z,16.68
2022-10-09T16:01:11.517Z,16.61
2022-10-09T16:03:40.948Z,16.56
2022-10-09T16:06:11.083Z,16.52
2022-10-09T16:08:37.863Z,16.52
2022-10-09T16:11:09.861Z,16.37
2022-10-09T16:13:39.149Z,16.31
2022-10-09T16:16:08.229Z,16.30
2022-10-09T16:18:35.166Z,16.25
2022-10-09T16:21:31.309Z,16.30
2022-10-09T16:23:59.629Z,16.22
2022-10-09T16:26:28.707Z,16.23
2022-10-09T16:28:55.226Z,16.24
2022-10-09T16:31:26.805Z,16.18
2022-10-09T16:33:53.341Z,16.09
2022-10-09T16:36:24.697Z,16.00
2022-10-09T16:38:51.143Z,15.93
2022-10-09T16:41:20.293Z,15.85
2022-10-09T16:43:48.760Z,15.77
2022-10-09T16:46:19.650Z,15.70
2022-10-09T16:48:47.190Z,15.74
2022-10-09T16:51:17.025Z,15.59
2022-10-09T16:53:43.476Z,15.52
2022-10-09T16:56:16.462Z,15.51
2022-10-09T16:58:43.883Z,15.38
2022-10-09T17:01:11.003Z,15.30
2022-10-09T17:03:40.406Z,15.30
2022-10-09T17:06:12.824Z,15.05
2022-10-09T17:08:39.573Z,15.11
2022-10-09T17:11:10.199Z,15.10
2022-10-09T17:13:37.057Z,14.97
2022-10-09T17:16:18.005Z,14.83
2022-10-09T17:18:46.017Z,14.85
2022-10-09T17:21:13.418Z,14.77
2022-10-09T17:23:40.416Z,14.85
2022-10-09T17:26:14.333Z,14.65
2022-10-09T17:28:43.930Z,14.65
2022-10-09T17:31:18.705Z,14.58
2022-10-09T17:33:48.109Z,14.42
2022-10-09T17:36:17.278Z,14.30
2022-10-09T17:38:44.758Z,14.39
2022-10-09T17:41:15.640Z,14.42
2022-10-09T17:43:42.335Z,14.46
2022-10-09T17:46:13.697Z,14.39
2022-10-09T17:48:44.489Z,14.35
2022-10-09T17:51:17.140Z,14.42
2022-10-09T17:53:45.139Z,14.36
2022-10-09T17:56:16.689Z,14.29
2022-10-09T17:58:44.511Z,14.38
2022-10-09T18:01:12.196Z,14.36
2022-10-09T18:03:38.678Z,14.24
2022-10-09T18:06:10.324Z,14.10
2022-10-09T18:08:36.871Z,13.98
2022-10-09T18:11:07.462Z,13.90
2022-10-09T18:13:36.113Z,13.93
2022-10-09T18:16:08.132Z,13.79
2022-10-09T18:18:35.193Z,13.96
2022-10-09T18:21:08.121Z,13.95
2022-10-09T18:23:37.957Z,13.87
2022-10-09T18:26:11.532Z,13.81
2022-10-09T18:28:42.632Z,13.79
2022-10-09T18:31:15.597Z,13.80
2022-10-09T18:33:42.624Z,13.82
2022-10-09T18:36:19.375Z,13.73
2022-10-09T18:38:48.395Z,13.67
2022-10-09T18:41:15.625Z,13.67
2022-10-09T18:43:42.094Z,13.60
2022-10-09T18:46:08.768Z,13.65
2022-10-09T18:48:37.824Z,13.65
2022-10-09T18:51:06.670Z,13.64
2022-10-09T18:53:37.887Z,13.59
2022-10-09T18:56:06.162Z,13.64
2022-10-09T18:58:34.713Z,13.53
2022-10-09T19:01:05.384Z,13.60
2022-10-09T19:03:33.645Z,13.62
2022-10-09T19:06:00.310Z,13.61
2022-10-09T19:08:27.409Z,13.66
2022-10-09T19:10:54.022Z,13.59
2022-10-09T19:13:20.727Z,13.51
2022-10-09T19:15:51.917Z,13.55
2022-10-09T19:18:18.502Z,13.62
2022-10-09T19:20:44.988Z,13.62
2022-10-09T19:23:15.228Z,13.57
2022-10-09T19:25:49.522Z,13.55
2022-10-09T19:28:17.108Z,13.53
2022-10-09T19:30:44.272Z,13.52
2022-10-09T19:33:11.824Z,13.49
2022-10-09T19:35:49.477Z,13.36
2022-10-09T19:38:19.113Z,13.28
2022-10-09T19:40:46.630Z,13.36
2022-10-09T19:43:14.171Z,13.37
2022-10-09T19:45:40.731Z,13.41
2022-10-09T19:48:07.145Z,13.30
2022-10-09T19:50:33.672Z,13.29
2022-10-09T19:53:03.213Z,13.31
2022-10-09T19:55:33.171Z,13.41
2022-10-09T19:58:00.390Z,13.43
2022-10-09T20:00:27.569Z,13.44
2022-10-09T20:02:53.991Z,13.44
2022-10-09T20:05:20.341Z,13.44
2022-10-09T20:07:46.846Z,13.41
2022-10-09T20:10:13.313Z,13.38
2022-10-09T20:12:39.790Z,13.40
2022-10-09T20:15:07.103Z,13.42
2022-10-09T20:17:33.509Z,13.24
2022-10-09T20:19:59.864Z,13.28
2022-10-09T20:22:26.317Z,13.28
2022-10-09T20:24:53.306Z,13.19
2022-10-09T20:27:19.813Z,13.17
2022-10-09T20:29:48.401Z,13.13
2022-10-09T20:32:14.930Z,13.10
2022-10-09T20:34:43.505Z,13.07
2022-10-09T20:37:12.322Z,13.12
2022-10-09T20:39:43.251Z,13.07
2022-10-09T20:42:09.830Z,13.05
2022-10-09T20:44:36.194Z,13.06
2022-10-09T20:47:02.643Z,13.03
2022-10-09T20:49:29.156Z,12.98
2022-10-09T20:51:56.791Z,12.95
2022-10-09T20:54:23.548Z,12.95
2022-10-09T20:56:54.507Z,12.93
2022-10-09T20:59:20.969Z,12.95
2022-10-09T21:01:47.597Z,12.97
2022-10-09T21:04:14.701Z,12.97
2022-10-09T21:06:45.842Z,12.89
2022-10-09T21:09:12.298Z,12.81
2022-10-09T21:11:40.240Z,12.82
2022-10-09T21:14:07.323Z,12.85
2022-10-09T21:16:36.762Z,12.87
2022-10-09T21:19:05.986Z,12.86
2022-10-09T21:21:33.787Z,12.86
2022-10-09T21:24:00.378Z,12.83
2022-10-09T21:26:28.981Z,12.79
2022-10-09T21:28:59.613Z,12.78
2022-10-09T21:31:31.469Z,12.74
2022-10-09T21:33:59.454Z,12.71
2022-10-09T21:37:09.005Z,12.67
2022-10-09T21:39:34.017Z,12.73
2022-10-09T21:42:04.683Z,12.62
2022-10-09T21:44:31.034Z,12.62
2022-10-09T21:46:59.720Z,12.56
2022-10-09T21:49:27.461Z,12.59
2022-10-09T21:51:56.870Z,12.56
2022-10-09T21:54:23.363Z,12.58
2022-10-09T21:56:49.794Z,12.54
2022-10-09T21:59:16.293Z,12.49
2022-10-09T22:01:42.771Z,12.58
2022-10-09T22:04:09.333Z,12.59
2022-10-09T22:06:38.069Z,12.52
2022-10-09T22:09:04.475Z,12.54
2022-10-09T22:11:30.964Z,12.51
2022-10-09T22:13:57.372Z,12.49
2022-10-09T22:16:23.819Z,12.46
2022-10-09T22:18:50.181Z,12.45
2022-10-09T22:21:18.181Z,12.46
2022-10-09T22:23:44.624Z,12.44
2022-10-09T22:26:17.459Z,12.52
2022-10-09T22:28:47.596Z,12.45
2022-10-09T22:31:21.764Z,12.40
2022-10-09T22:33:57.555Z,12.45
2022-10-09T22:36:26.018Z,12.45
2022-10-09T22:38:54.440Z,12.37
2022-10-09T22:41:22.701Z,12.14
2022-10-09T22:43:51.789Z,12.11
2022-10-09T22:46:21.358Z,12.00
2022-10-09T22:48:50.638Z,11.89
2022-10-09T22:51:18.761Z,11.74
2022-10-09T22:53:46.456Z,11.79
2022-10-09T22:56:22.559Z,11.77
2022-10-09T22:58:51.610Z,11.70
2022-10-09T23:01:25.130Z,11.69
2022-10-09T23:03:51.600Z,11.83
2022-10-09T23:06:19.991Z,11.73
2022-10-09T23:08:50.426Z,11.79
2022-10-09T23:11:18.732Z,11.66
2022-10-09T23:13:48.419Z,11.81
2022-10-09T23:16:15.409Z,11.66
2022-10-09T23:18:46.609Z,11.74
2022-10-09T23:21:15.582Z,11.64
2022-10-09T23:23:43.581Z,11.64
2022-10-09T23:26:14.725Z,11.66
2022-10-09T23:28:44.370Z,11.52
2022-10-09T23:31:14.659Z,11.63
2022-10-09T23:33:42.834Z,11.49
2022-10-09T23:36:13.480Z,11.43
2022-10-09T23:38:40.075Z,11.32
2022-10-09T23:41:10.627Z,11.31
2022-10-09T23:43:38.558Z,11.17
2022-10-09T23:46:07.412Z,11.29
2022-10-09T23:48:34.484Z,11.13
2022-10-09T23:51:01.001Z,11.06
2022-10-09T23:53:27.964Z,11.02
2022-10-09T23:55:54.871Z,11.01
2022-10-09T23:58:22.317Z,10.96
